createdAt,value
2023-02-05T00:03:04.550Z,14.35
2023-02-05T00:08:11.449Z,16.17
2023-02-05T00:13:13.162Z,13.70
2023-02-05T00:18:15.010Z,13.60
2023-02-05T00:23:16.680Z,16.73
2023-02-05T00:28:18.231Z,21.08
2023-02-05T00:33:20.111Z,18.58
2023-02-05T00:38:21.891Z,18.42
2023-02-05T00:43:24.587Z,20.90
2023-02-05T00:48:26.145Z,13.68
2023-02-05T00:53:28.186Z,14.02
2023-02-05T00:58:29.747Z,13.02
2023-02-05T01:03:31.408Z,17.27
2023-02-05T01:08:33.158Z,14.13
2023-02-05T01:13:34.731Z,13.63
2023-02-05T01:18:36.708Z,13.73
2023-02-05T01:23:38.291Z,19.77
2023-02-05T01:28:39.914Z,14.93
2023-02-05T01:33:41.497Z,16.80
2023-02-05T01:38:43.050Z,11.52
2023-02-05T01:44:15.204Z,19.83
2023-02-05T01:49:41.191Z,19.00
2023-02-05T01:54:48.807Z,9.02
2023-02-05T01:59:50.891Z,13.35
2023-02-05T02:04:57.806Z,12.60
2023-02-05T02:09:59.874Z,11.40
2023-02-05T02:15:10.648Z,15.27
2023-02-05T02:20:16.907Z,15.90
2023-02-05T02:25:18.444Z,16.60
2023-02-05T02:30:26.303Z,13.02
2023-02-05T02:35:48.266Z,14.27
2023-02-05T02:40:58.231Z,18.20
2023-02-05T02:46:08.107Z,11.52
2023-02-05T02:51:12.418Z,13.75
2023-02-05T02:56:14.951Z,13.70
2023-02-05T03:01:23.525Z,13.77
2023-02-05T03:06:26.890Z,14.45
2023-02-05T03:11:29.762Z,17.55
2023-02-05T03:16:34.088Z,16.52
2023-02-05T03:21:41.991Z,11.30
2023-02-05T03:26:43.806Z,10.40
2023-02-05T03:32:14.870Z,10.27
2023-02-05T03:37:26.648Z,11.15
2023-02-05T03:42:58.802Z,11.77
2023-02-05T03:48:38.039Z,11.40
2023-02-05T03:53:49.855Z,10.27
2023-02-05T03:58:56.643Z,14.15
2023-02-05T04:04:00.380Z,15.03
2023-02-05T04:09:03.604Z,8.48
2023-02-05T04:14:05.636Z,9.52
2023-02-05T04:19:08.175Z,11.77
2023-02-05T04:24:09.904Z,9.88
2023-02-05T04:29:12.414Z,11.98
2023-02-05T04:34:18.729Z,11.80
2023-02-05T04:39:20.421Z,9.15
2023-02-05T04:44:22.890Z,10.15
2023-02-05T04:49:24.433Z,10.60
2023-02-05T04:54:28.288Z,13.15
2023-02-05T04:59:32.662Z,8.43
2023-02-05T05:04:34.213Z,8.73
2023-02-05T05:09:38.979Z,6.00
2023-02-05T05:14:40.748Z,10.98
2023-02-05T05:19:42.485Z,10.15
2023-02-05T05:24:44.231Z,13.77
2023-02-05T05:29:46.713Z,12.27
2023-02-05T05:34:48.424Z,9.93
2023-02-05T05:40:08.337Z,9.48
2023-02-05T05:45:10.398Z,9.52
2023-02-05T05:50:12.016Z,7.53
2023-02-05T05:55:13.572Z,9.82
2023-02-05T06:00:15.523Z,13.10
2023-02-05T06:05:19.423Z,8.20
2023-02-05T06:10:21.078Z,7.57
2023-02-05T06:15:22.836Z,9.55
2023-02-05T06:20:24.446Z,11.15
2023-02-05T06:25:26.005Z,10.00
2023-02-05T06:30:27.784Z,11.02
2023-02-05T06:35:29.353Z,11.85
2023-02-05T06:40:30.880Z,12.80
2023-02-05T06:45:32.903Z,8.90
2023-02-05T06:50:34.671Z,9.80
2023-02-05T06:55:39.650Z,11.68
2023-02-05T07:00:41.832Z,11.95
2023-02-05T07:05:43.543Z,15.02
2023-02-05T07:10:45.301Z,17.08
2023-02-05T07:15:47.483Z,15.60
2023-02-05T07:20:49.263Z,18.88
2023-02-05T07:25:51.092Z,17.33
2023-02-05T07:30:52.683Z,21.73
2023-02-05T07:35:54.752Z,20.08
2023-02-05T07:40:59.735Z,21.77
2023-02-05T07:46:07.754Z,16.52
2023-02-05T07:51:17.154Z,18.27
2023-02-05T07:56:21.853Z,16.55
2023-02-05T08:01:23.486Z,16.90
2023-02-05T08:06:25.778Z,14.43
2023-02-05T08:11:27.495Z,14.63
2023-02-05T08:16:29.080Z,17.23
2023-02-05T08:21:32.836Z,21.27
2023-02-05T08:26:34.386Z,14.43
2023-02-05T08:31:36.922Z,14.75
2023-02-05T08:36:38.685Z,11.80
2023-02-05T08:41:40.320Z,16.13
2023-02-05T08:46:49.707Z,22.10
2023-02-05T08:51:53.929Z,13.65
2023-02-05T08:56:55.648Z,14.88
2023-02-05T09:01:57.233Z,15.30
2023-02-05T09:06:58.999Z,10.48
2023-02-05T09:12:01.208Z,10.05
2023-02-05T09:17:08.068Z,12.32
2023-02-05T09:22:10.000Z,15.95
2023-02-05T09:27:14.262Z,13.73
2023-02-05T09:32:15.863Z,15.07
2023-02-05T09:37:18.015Z,13.75
2023-02-05T09:43:01.121Z,13.18
2023-02-05T09:48:10.271Z,14.07
2023-02-05T09:53:15.713Z,12.68
2023-02-05T09:58:21.451Z,12.95
2023-02-05T10:03:29.219Z,12.13
2023-02-05T10:08:41.138Z,13.95
2023-02-05T10:13:45.344Z,14.13
2023-02-05T10:18:56.276Z,15.43
2023-02-05T10:24:08.957Z,13.32
2023-02-05T10:29:21.928Z,14.13
2023-02-05T10:34:38.605Z,11.90
2023-02-05T10:39:40.876Z,11.27
2023-02-05T10:44:49.148Z,16.95
2023-02-05T10:50:01.293Z,13.60
2023-02-05T10:55:03.038Z,12.02
2023-02-05T11:00:25.382Z,13.60
2023-02-05T11:05:37.310Z,12.05
2023-02-05T11:10:39.047Z,16.33
2023-02-05T11:15:59.246Z,12.25
2023-02-05T11:21:03.055Z,13.52
2023-02-05T11:26:23.166Z,13.95
2023-02-05T11:31:28.831Z,14.77
2023-02-05T11:36:31.548Z,18.50
2023-02-05T11:41:48.376Z,10.13
2023-02-05T11:46:56.785Z,15.45
2023-02-05T11:51:59.246Z,16.75
2023-02-05T11:57:05.503Z,11.85
2023-02-05T12:02:25.667Z,15.02
2023-02-05T12:07:33.334Z,12.47
2023-02-05T12:12:46.799Z,12.48
2023-02-05T12:17:51.142Z,12.90
2023-02-05T12:23:07.729Z,12.70
2023-02-05T12:28:36.893Z,13.82
2023-02-05T12:34:05.898Z,13.93
2023-02-05T12:39:34.008Z,16.37
2023-02-05T12:44:42.887Z,17.17
2023-02-05T12:49:56.155Z,19.57
2023-02-05T12:55:25.946Z,17.75
2023-02-05T13:05:49.753Z,19.95
2023-02-05T13:11:12.499Z,16.90
2023-02-05T13:16:17.823Z,19.90
2023-02-05T13:21:39.800Z,21.90
2023-02-05T13:27:04.580Z,21.02
2023-02-05T13:32:16.010Z,22.60
2023-02-05T13:37:53.002Z,19.77
2023-02-05T13:43:03.484Z,22.50
2023-02-05T13:48:40.668Z,20.55
2023-02-05T13:54:23.980Z,21.55
2023-02-05T13:59:42.456Z,20.80
2023-02-05T14:04:54.224Z,21.83
2023-02-05T14:10:01.126Z,20.50
2023-02-05T14:15:20.921Z,18.40
2023-02-05T14:25:36.860Z,17.45
2023-02-05T14:30:53.484Z,20.95
2023-02-05T14:36:17.478Z,20.83
2023-02-05T14:41:26.077Z,18.83
2023-02-05T14:46:41.996Z,23.10
2023-02-05T14:51:51.885Z,24.80
2023-02-05T15:02:46.886Z,21.30
2023-02-05T15:07:53.236Z,23.77
2023-02-05T15:13:08.714Z,20.85
2023-02-05T15:18:10.353Z,21.95
2023-02-05T15:23:11.878Z,26.88
2023-02-05T15:28:36.993Z,23.65
2023-02-05T15:34:16.189Z,23.27
2023-02-05T15:39:25.594Z,26.90
2023-02-05T15:44:30.152Z,30.65
2023-02-05T15:49:37.478Z,19.83
2023-02-05T15:54:40.156Z,22.20
2023-02-05T15:59:42.051Z,19.75
2023-02-05T16:04:43.761Z,29.95
2023-02-05T16:09:52.825Z,25.08
2023-02-05T16:15:00.517Z,27.52
2023-02-05T16:20:12.764Z,24.48
2023-02-05T16:25:41.299Z,20.63
2023-02-05T16:30:47.624Z,26.05
2023-02-05T16:35:49.434Z,27.40
2023-02-05T16:40:55.033Z,27.05
2023-02-05T16:46:08.933Z,23.83
2023-02-05T16:51:52.689Z,34.28
2023-02-05T16:57:28.698Z,30.65
2023-02-05T17:02:39.530Z,28.13
2023-02-05T17:07:41.990Z,27.75
2023-02-05T17:12:50.403Z,26.15
2023-02-05T17:17:55.556Z,27.58
2023-02-05T17:23:05.861Z,31.58
2023-02-05T17:28:13.079Z,23.17
2023-02-05T17:33:20.428Z,30.35
2023-02-05T17:38:23.700Z,31.50
2023-02-05T17:43:25.313Z,30.70
2023-02-05T17:48:26.855Z,35.53
2023-02-05T17:53:29.007Z,31.50
2023-02-05T17:58:30.628Z,32.13
2023-02-05T18:03:32.198Z,38.17
2023-02-05T18:08:36.314Z,33.90
2023-02-05T18:13:38.259Z,32.08
2023-02-05T18:18:40.032Z,29.85
2023-02-05T18:23:41.816Z,29.45
2023-02-05T18:28:43.590Z,27.40
2023-02-05T18:33:45.156Z,24.45
2023-02-05T18:38:46.698Z,26.13
2023-02-05T18:43:48.530Z,23.00
2023-02-05T18:48:54.692Z,20.90
2023-02-05T18:53:58.545Z,21.50
2023-02-05T18:59:06.305Z,24.45
2023-02-05T19:04:11.050Z,22.27
2023-02-05T19:09:12.634Z,20.17
2023-02-05T19:14:16.419Z,20.77
2023-02-05T19:19:21.389Z,23.02
2023-02-05T19:24:23.035Z,23.90
2023-02-05T19:29:25.713Z,21.25
2023-02-05T19:34:28.021Z,21.80
2023-02-05T19:39:29.576Z,19.90
2023-02-05T19:44:32.182Z,24.00
2023-02-05T19:49:33.914Z,24.75
2023-02-05T19:54:36.068Z,22.50
2023-02-05T19:59:37.732Z,22.38
2023-02-05T20:04:40.717Z,22.75
2023-02-05T20:09:42.467Z,23.15
2023-02-05T20:14:44.187Z,20.92
2023-02-05T20:19:45.771Z,25.33
2023-02-05T20:24:47.449Z,23.75
2023-02-05T20:30:07.701Z,24.00
2023-02-05T20:35:09.382Z,24.23
2023-02-05T20:40:11.417Z,22.73
2023-02-05T20:45:12.951Z,22.15
2023-02-05T20:50:14.749Z,23.50
2023-02-05T20:55:16.513Z,22.40
2023-02-05T21:00:19.797Z,26.05
2023-02-05T21:05:21.502Z,24.92
2023-02-05T21:10:23.064Z,21.80
2023-02-05T21:15:24.752Z,23.42
2023-02-05T21:20:27.462Z,24.75
2023-02-05T21:25:29.008Z,22.83
2023-02-05T21:30:30.663Z,23.20
2023-02-05T21:35:32.282Z,23.23
2023-02-05T21:40:34.386Z,20.98
2023-02-05T21:45:37.016Z,23.85
2023-02-05T21:50:41.047Z,15.15
2023-02-05T21:55:42.611Z,10.82
2023-02-05T22:00:44.131Z,9.35
2023-02-05T22:05:45.750Z,8.90
2023-02-05T22:10:47.285Z,7.53
2023-02-05T22:15:48.939Z,9.18
2023-02-05T22:20:50.612Z,8.10
2023-02-05T22:25:52.219Z,10.15
2023-02-05T22:31:01.589Z,8.80
2023-02-05T22:36:04.297Z,9.68
2023-02-05T22:41:14.958Z,10.07
2023-02-05T22:46:19.607Z,10.25
2023-02-05T22:51:38.933Z,9.55
2023-02-05T22:56:40.568Z,10.63
2023-02-05T23:01:42.197Z,12.45
2023-02-05T23:06:45.144Z,12.27
2023-02-05T23:11:46.760Z,11.82
2023-02-05T23:16:48.357Z,11.70
2023-02-05T23:21:50.114Z,15.23
2023-02-05T23:26:53.471Z,13.98
2023-02-05T23:31:55.050Z,14.40
2023-02-05T23:36:56.612Z,16.23
2023-02-05T23:41:58.205Z,16.65
2023-02-05T23:46:59.911Z,17.42
2023-02-05T23:52:01.481Z,16.95
2023-02-05T23:57:03.089Z,19.25
